Time;durP1;ratioP1;P1;durP2;ratioP2;P2;SDS_P1;SDS_P2;PMS_P1;PMS_P2;Temp;Humidity;BMP_temperature;BMP_pressure;BME280_temperature;BME280_humidity;BME280_pressure;Samples;Min_cycle;Max_cycle;Signal;HPM_P1;HPM_P2
2022/06/03 00:00:19;;;;;;;5.60;4.68;;;;;;;;;;5075549;28;20044;-67
2022/06/03 00:03:02;;;;;;;8.52;5.10;;;;;;;;;;5076477;28;20064;-67
2022/06/03 00:05:44;;;;;;;8.30;5.00;;;;;;;;;;5076577;28;20052;-67
2022/06/03 00:08:16;;;;;;;8.70;4.90;;;;;;;;;;5071872;28;20101;-67
2022/06/03 00:10:54;;;;;;;6.30;4.82;;;;;;;;;;5074011;28;20610;-67
2022/06/03 00:13:33;;;;;;;8.18;4.55;;;;;;;;;;5076612;28;20056;-67
2022/06/03 00:16:07;;;;;;;7.85;4.28;;;;;;;;;;5074175;28;20056;-67
2022/06/03 00:18:55;;;;;;;13.25;4.63;;;;;;;;;;5075560;28;20128;-67
2022/06/03 00:21:35;;;;;;;6.43;4.75;;;;;;;;;;5078797;28;20555;-67
2022/06/03 00:24:09;;;;;;;6.85;4.28;;;;;;;;;;5073675;28;20486;-67
2022/06/03 00:26:54;;;;;;;6.13;4.50;;;;;;;;;;5081323;28;20579;-67
2022/06/03 00:29:39;;;;;;;8.57;4.55;;;;;;;;;;5071930;28;20048;-67
2022/06/03 00:32:14;;;;;;;12.77;4.90;;;;;;;;;;5071227;28;20048;-67
2022/06/03 00:34:48;;;;;;;8.07;4.63;;;;;;;;;;5070880;28;20101;-67
2022/06/03 00:37:21;;;;;;;4.78;4.28;;;;;;;;;;5074108;28;20121;-67
2022/06/03 00:39:57;;;;;;;8.23;4.60;;;;;;;;;;5073356;28;20170;-67
2022/06/03 00:42:37;;;;;;;7.53;4.85;;;;;;;;;;5069671;28;20052;-67
2022/06/03 00:45:14;;;;;;;5.40;4.22;;;;;;;;;;5073030;28;20590;-67
2022/06/03 00:47:51;;;;;;;6.32;4.28;;;;;;;;;;5078803;28;20108;-67
2022/06/03 00:50:33;;;;;;;6.20;4.85;;;;;;;;;;5070745;28;20052;-67
2022/06/03 00:53:23;;;;;;;7.55;4.10;;;;;;;;;;5034785;28;20116;-67
2022/06/03 00:56:01;;;;;;;9.73;4.60;;;;;;;;;;5079496;28;20175;-67
2022/06/03 00:58:47;;;;;;;6.60;4.15;;;;;;;;;;5073221;28;20044;-67
2022/06/03 01:01:16;;;;;;;6.82;4.63;;;;;;;;;;5070871;28;20052;-67
2022/06/03 01:03:56;;;;;;;4.53;4.07;;;;;;;;;;5076132;28;20102;-67
2022/06/03 01:06:26;;;;;;;11.80;4.50;;;;;;;;;;5072802;28;20064;-67
2022/06/03 01:09:00;;;;;;;9.18;4.40;;;;;;;;;;5079673;28;20051;-67
2022/06/03 01:11:41;;;;;;;6.38;4.53;;;;;;;;;;5067977;28;20060;-67
2022/06/03 01:14:16;;;;;;;5.95;4.32;;;;;;;;;;5069592;28;20410;-67
2022/06/03 01:16:53;;;;;;;7.13;4.30;;;;;;;;;;5075589;28;20106;-67
2022/06/03 01:19:28;;;;;;;8.15;4.78;;;;;;;;;;5071814;28;20048;-67
2022/06/03 01:22:09;;;;;;;5.72;4.43;;;;;;;;;;5078436;28;20109;-67
2022/06/03 01:24:48;;;;;;;8.13;4.00;;;;;;;;;;5072645;28;20060;-67
2022/06/03 01:27:34;;;;;;;5.10;4.00;;;;;;;;;;5073592;28;20080;-67
2022/06/03 01:30:10;;;;;;;7.07;4.38;;;;;;;;;;5077723;28;20099;-67
2022/06/03 01:32:50;;;;;;;7.38;3.90;;;;;;;;;;5077436;28;20054;-67
2022/06/03 01:35:34;;;;;;;6.38;4.32;;;;;;;;;;5068955;28;20139;-67
2022/06/03 01:38:04;;;;;;;5.25;3.97;;;;;;;;;;5069686;28;20101;-67
2022/06/03 01:40:44;;;;;;;6.88;4.10;;;;;;;;;;5071687;28;20105;-67
2022/06/03 01:43:29;;;;;;;4.90;4.15;;;;;;;;;;5076151;28;20044;-67
2022/06/03 01:46:13;;;;;;;7.95;4.90;;;;;;;;;;5067665;28;20403;-67
2022/06/03 01:48:59;;;;;;;8.55;4.32;;;;;;;;;;5077384;28;20043;-67
2022/06/03 01:51:45;;;;;;;5.85;4.15;;;;;;;;;;5074157;28;20052;-67
2022/06/03 01:54:25;;;;;;;6.85;4.28;;;;;;;;;;5075200;28;20044;-67
2022/06/03 01:57:03;;;;;;;10.80;4.00;;;;;;;;;;5084683;28;20150;-67
2022/06/03 01:59:42;;;;;;;6.63;3.92;;;;;;;;;;5080676;28;20060;-67
2022/06/03 02:02:24;;;;;;;8.10;3.95;;;;;;;;;;5078620;28;20463;-67
2022/06/03 02:05:17;;;;;;;5.88;4.35;;;;;;;;;;5078597;28;20044;-67
2022/06/03 02:07:55;;;;;;;8.17;4.40;;;;;;;;;;5069046;28;20052;-67
2022/06/03 02:10:47;;;;;;;5.82;3.90;;;;;;;;;;5080917;28;20558;-67
2022/06/03 02:13:35;;;;;;;8.38;4.80;;;;;;;;;;5070802;28;20056;-67
2022/06/03 02:16:19;;;;;;;6.28;5.00;;;;;;;;;;5079301;28;20052;-67
2022/06/03 02:19:00;;;;;;;7.55;4.53;;;;;;;;;;5074984;28;20489;-67
2022/06/03 02:21:45;;;;;;;7.05;4.72;;;;;;;;;;5077185;28;20122;-67
2022/06/03 02:24:31;;;;;;;6.20;4.85;;;;;;;;;;5080212;28;20214;-67
2022/06/03 02:27:22;;;;;;;6.97;4.90;;;;;;;;;;5075254;28;20051;-67
2022/06/03 02:33:16;;;;;;;6.75;5.07;;;;;;;;;;5078372;28;20051;-67
2022/06/03 02:35:57;;;;;;;7.47;5.30;;;;;;;;;;5075820;28;20120;-67
2022/06/03 02:38:37;;;;;;;7.07;4.55;;;;;;;;;;5076403;28;20040;-67
2022/06/03 02:41:21;;;;;;;7.03;4.75;;;;;;;;;;5076149;28;20056;-67
2022/06/03 02:44:03;;;;;;;7.90;5.38;;;;;;;;;;5076640;28;20052;-67
2022/06/03 02:46:43;;;;;;;9.23;5.20;;;;;;;;;;5064305;28;20056;-67
2022/06/03 02:49:33;;;;;;;7.05;5.10;;;;;;;;;;5078417;28;20047;-67
2022/06/03 02:52:10;;;;;;;5.90;4.50;;;;;;;;;;5080086;28;20114;-67
2022/06/03 02:54:56;;;;;;;9.60;5.40;;;;;;;;;;5075857;28;20044;-67
2022/06/03 02:57:36;;;;;;;8.82;5.03;;;;;;;;;;5077211;28;20051;-67
2022/06/03 03:00:21;;;;;;;9.48;5.55;;;;;;;;;;5072125;28;20549;-67
2022/06/03 03:03:06;;;;;;;7.45;4.97;;;;;;;;;;5083551;28;20052;-67
2022/06/03 03:05:51;;;;;;;9.18;5.63;;;;;;;;;;5076092;28;20148;-67
2022/06/03 03:08:45;;;;;;;9.82;5.35;;;;;;;;;;5073145;28;20057;-67
2022/06/03 03:11:19;;;;;;;9.80;5.93;;;;;;;;;;5048334;28;20052;-67
2022/06/03 03:13:46;;;;;;;;;;;;;;;;;;5073636;28;20059;-67
2022/06/03 03:16:21;;;;;;;7.47;5.32;;;;;;;;;;5081755;28;20375;-67
2022/06/03 03:19:00;;;;;;;11.88;6.00;;;;;;;;;;5080181;28;20078;-67
2022/06/03 03:21:46;;;;;;;9.27;5.60;;;;;;;;;;5076599;28;20094;-67
2022/06/03 03:24:31;;;;;;;8.88;5.30;;;;;;;;;;5075638;28;20125;-67
2022/06/03 03:27:11;;;;;;;11.00;6.25;;;;;;;;;;5073708;28;20059;-67
2022/06/03 03:29:54;;;;;;;8.60;5.82;;;;;;;;;;5077129;28;20495;-67
2022/06/03 03:32:30;;;;;;;9.00;5.97;;;;;;;;;;5073994;28;20052;-67
2022/06/03 03:35:04;;;;;;;6.80;5.13;;;;;;;;;;5080993;28;20452;-67
2022/06/03 03:37:53;;;;;;;11.65;5.80;;;;;;;;;;5077961;28;20056;-67
2022/06/03 03:40:38;;;;;;;8.82;5.38;;;;;;;;;;5078808;28;20044;-67
2022/06/03 03:43:17;;;;;;;8.82;6.18;;;;;;;;;;5077726;28;20049;-67
2022/06/03 03:45:54;;;;;;;8.05;6.45;;;;;;;;;;5078055;28;20394;-67
2022/06/03 03:48:34;;;;;;;8.48;6.07;;;;;;;;;;5076329;28;20052;-67
2022/06/03 03:51:10;;;;;;;10.40;6.22;;;;;;;;;;5075699;28;20462;-67
2022/06/03 03:54:00;;;;;;;9.63;6.70;;;;;;;;;;5076467;28;20557;-67
2022/06/03 03:56:48;;;;;;;11.98;6.32;;;;;;;;;;5082573;28;20066;-67
2022/06/03 03:59:34;;;;;;;8.80;6.72;;;;;;;;;;5077275;28;20117;-67
2022/06/03 04:02:22;;;;;;;11.10;7.35;;;;;;;;;;5078658;28;20055;-67
2022/06/03 04:05:07;;;;;;;9.27;5.72;;;;;;;;;;5074851;28;20063;-67
2022/06/03 04:07:55;;;;;;;7.93;6.35;;;;;;;;;;5079130;28;20101;-67
2022/06/03 04:10:42;;;;;;;14.80;6.95;;;;;;;;;;5036238;28;20117;-67
2022/06/03 04:13:24;;;;;;;10.77;7.18;;;;;;;;;;5075843;28;20042;-67
2022/06/03 04:16:03;;;;;;;9.70;6.32;;;;;;;;;;5078621;28;20465;-67
2022/06/03 04:18:44;;;;;;;11.52;6.45;;;;;;;;;;5069335;28;20521;-67
2022/06/03 04:21:25;;;;;;;8.60;6.05;;;;;;;;;;5076199;28;20047;-67
2022/06/03 04:24:08;;;;;;;11.85;7.47;;;;;;;;;;5078827;28;20052;-67
2022/06/03 04:27:10;;;;;;;9.20;6.68;;;;;;;;;;5077400;28;20442;-67
2022/06/03 04:29:56;;;;;;;11.32;6.53;;;;;;;;;;5075415;28;20592;-67
2022/06/03 04:32:38;;;;;;;12.43;6.40;;;;;;;;;;5082567;28;20051;-67
2022/06/03 04:35:26;;;;;;;11.15;6.93;;;;;;;;;;5027665;28;20405;-67
2022/06/03 04:38:07;;;;;;;10.07;7.00;;;;;;;;;;5068355;28;20052;-67
2022/06/03 04:41:01;;;;;;;11.35;6.97;;;;;;;;;;5069363;28;20098;-67
2022/06/03 04:43:28;;;;;;;;;;;;;;;;;;5071790;28;20110;-67
2022/06/03 04:46:10;;;;;;;11.80;7.15;;;;;;;;;;5070859;28;19928;-67
2022/06/03 04:49:00;;;;;;;9.50;6.43;;;;;;;;;;5067200;28;20048;-67
2022/06/03 04:51:46;;;;;;;12.65;6.50;;;;;;;;;;5070450;28;20151;-67
2022/06/03 04:54:28;;;;;;;12.98;6.78;;;;;;;;;;5068470;28;20074;-67
2022/06/03 04:57:10;;;;;;;10.27;7.22;;;;;;;;;;5070605;28;20113;-67
2022/06/03 05:00:02;;;;;;;18.23;6.68;;;;;;;;;;5070366;28;20870;-67
2022/06/03 05:02:42;;;;;;;9.30;6.63;;;;;;;;;;5068766;28;20080;-67
2022/06/03 05:05:34;;;;;;;11.75;6.13;;;;;;;;;;5069928;28;20048;-67
2022/06/03 05:08:20;;;;;;;12.23;6.18;;;;;;;;;;5077790;28;20122;-67
2022/06/03 05:11:17;;;;;;;14.48;6.93;;;;;;;;;;5077195;28;20055;-67
2022/06/03 05:14:03;;;;;;;9.18;5.93;;;;;;;;;;5069965;28;20448;-67
2022/06/03 05:16:42;;;;;;;13.35;6.03;;;;;;;;;;5070018;28;20105;-67
2022/06/03 05:19:30;;;;;;;15.00;6.15;;;;;;;;;;5073517;28;20139;-67
2022/06/03 05:22:18;;;;;;;12.13;6.00;;;;;;;;;;5064700;28;20052;-67
2022/06/03 05:25:00;;;;;;;8.57;6.15;;;;;;;;;;5071756;28;20066;-67
2022/06/03 05:27:44;;;;;;;10.15;6.82;;;;;;;;;;5064686;28;20372;-67
2022/06/03 05:30:31;;;;;;;8.90;6.13;;;;;;;;;;5068701;28;20049;-68
2022/06/03 05:33:07;;;;;;;9.02;5.90;;;;;;;;;;5070921;28;20098;-68
2022/06/03 05:35:45;;;;;;;11.63;6.90;;;;;;;;;;5067926;28;20492;-68
2022/06/03 05:38:28;;;;;;;12.00;6.57;;;;;;;;;;5069435;28;20060;-68
2022/06/03 05:41:07;;;;;;;9.30;5.97;;;;;;;;;;5069325;28;20075;-68
2022/06/03 05:43:57;;;;;;;11.15;6.28;;;;;;;;;;5069155;28;20056;-68
2022/06/03 05:46:30;;;;;;;12.00;6.05;;;;;;;;;;5069227;28;20048;-68
2022/06/03 05:49:10;;;;;;;12.13;6.13;;;;;;;;;;5070796;28;20067;-68
2022/06/03 05:51:45;;;;;;;10.52;6.47;;;;;;;;;;5069546;28;20059;-68
2022/06/03 05:54:16;;;;;;;9.75;5.55;;;;;;;;;;5070717;28;20052;-68
2022/06/03 05:56:47;;;;;;;11.55;6.25;;;;;;;;;;5070750;28;20056;-68
2022/06/03 05:59:21;;;;;;;12.68;5.95;;;;;;;;;;5067757;28;20052;-68
2022/06/03 06:02:01;;;;;;;10.10;5.70;;;;;;;;;;5066699;28;20052;-68
2022/06/03 06:04:34;;;;;;;9.18;5.20;;;;;;;;;;5069286;28;20495;-68
2022/06/03 06:07:07;;;;;;;9.30;5.65;;;;;;;;;;5070007;28;20097;-68
2022/06/03 06:09:52;;;;;;;6.60;4.93;;;;;;;;;;5068306;28;20048;-68
2022/06/03 06:12:25;;;;;;;8.85;4.93;;;;;;;;;;5067736;28;20052;-68
2022/06/03 06:15:09;;;;;;;9.52;5.40;;;;;;;;;;5069933;28;20060;-68
2022/06/03 06:17:42;;;;;;;6.85;4.30;;;;;;;;;;5073872;28;20047;-68
2022/06/03 06:20:14;;;;;;;6.95;4.57;;;;;;;;;;5077519;28;20055;-68
2022/06/03 06:22:46;;;;;;;8.60;4.30;;;;;;;;;;5081148;28;20513;-68
2022/06/03 06:25:16;;;;;;;11.68;4.25;;;;;;;;;;5067484;28;20495;-68
2022/06/03 06:28:02;;;;;;;7.40;4.00;;;;;;;;;;5069970;28;20101;-68
2022/06/03 06:30:46;;;;;;;9.35;3.50;;;;;;;;;;5069506;28;20097;-68
2022/06/03 06:33:16;;;;;;;7.60;3.38;;;;;;;;;;5071799;28;20064;-68
2022/06/03 06:35:59;;;;;;;7.15;3.63;;;;;;;;;;5075323;28;20056;-68
2022/06/03 06:38:26;;;;;;;;;;;;;;;;;;5082260;28;20101;-68
2022/06/03 06:40:59;;;;;;;6.05;3.40;;;;;;;;;;5077156;28;20068;-68
2022/06/03 06:43:33;;;;;;;5.33;3.00;;;;;;;;;;5072727;28;20732;-68
2022/06/03 06:46:08;;;;;;;6.00;3.10;;;;;;;;;;5073533;28;20048;-68
2022/06/03 06:48:41;;;;;;;7.30;3.00;;;;;;;;;;5069685;28;20075;-68
2022/06/03 06:51:18;;;;;;;6.95;3.05;;;;;;;;;;5067678;28;20109;-68
2022/06/03 06:53:48;;;;;;;6.63;3.30;;;;;;;;;;5079423;28;20045;-68
2022/06/03 06:56:17;;;;;;;5.22;2.92;;;;;;;;;;5068189;28;20056;-68
2022/06/03 06:58:50;;;;;;;5.00;2.50;;;;;;;;;;5067025;28;20045;-68
2022/06/03 07:01:23;;;;;;;5.65;2.63;;;;;;;;;;5067722;28;20048;-68
2022/06/03 07:03:54;;;;;;;5.60;2.38;;;;;;;;;;5073772;28;20499;-68
2022/06/03 07:06:27;;;;;;;3.95;2.30;;;;;;;;;;5072292;28;20543;-68
2022/06/03 07:08:59;;;;;;;6.55;2.15;;;;;;;;;;5073842;28;20048;-68
2022/06/03 07:11:29;;;;;;;2.97;2.20;;;;;;;;;;5068557;28;20056;-68
2022/06/03 07:13:57;;;;;;;6.85;2.35;;;;;;;;;;5074198;28;20044;-68
2022/06/03 07:22:03;;;;;;;6.20;2.00;;;;;;;;;;5074150;28;20124;-68
2022/06/03 07:24:41;;;;;;;4.00;2.05;;;;;;;;;;5073016;28;20059;-68
2022/06/03 07:27:12;;;;;;;5.38;1.75;;;;;;;;;;5068411;28;20052;-68
2022/06/03 07:29:42;;;;;;;4.72;1.67;;;;;;;;;;5072574;28;20098;-68
2022/06/03 07:32:14;;;;;;;4.32;1.85;;;;;;;;;;5073094;28;20446;-68
2022/06/03 07:34:47;;;;;;;2.40;1.77;;;;;;;;;;5074534;28;20121;-68
2022/06/03 07:37:17;;;;;;;3.45;2.08;;;;;;;;;;5074324;28;20315;-68
2022/06/03 07:39:49;;;;;;;6.32;1.90;;;;;;;;;;5075735;28;20060;-68
2022/06/03 07:42:19;;;;;;;3.88;1.70;;;;;;;;;;5080115;28;20167;-68
2022/06/03 07:44:52;;;;;;;6.72;2.08;;;;;;;;;;5073560;28;20060;-68
2022/06/03 07:47:21;;;;;;;2.70;1.73;;;;;;;;;;5078917;28;20047;-68
2022/06/03 07:49:54;;;;;;;9.45;2.10;;;;;;;;;;5077055;28;20913;-68
2022/06/03 07:52:21;;;;;;;;;;;;;;;;;;5074305;28;20052;-68
2022/06/03 07:54:55;;;;;;;4.47;1.80;;;;;;;;;;5072709;28;20375;-68
2022/06/03 07:57:24;;;;;;;3.10;1.50;;;;;;;;;;5076851;28;20047;-68
2022/06/03 07:59:53;;;;;;;4.10;1.75;;;;;;;;;;5070367;28;20418;-68
2022/06/03 08:02:22;;;;;;;4.18;1.77;;;;;;;;;;5077851;28;20074;-68
2022/06/03 08:04:51;;;;;;;3.22;1.80;;;;;;;;;;5080452;28;20048;-68
2022/06/03 08:12:57;;;;;;;6.88;2.70;;;;;;;;;;5072752;28;20047;-68
2022/06/03 08:15:28;;;;;;;4.95;2.17;;;;;;;;;;5075271;28;20876;-68
2022/06/03 08:17:57;;;;;;;3.42;1.90;;;;;;;;;;5076167;28;20044;-68
2022/06/03 08:20:27;;;;;;;5.32;2.35;;;;;;;;;;5078411;28;20626;-68
2022/06/03 08:22:54;;;;;;;2.45;1.63;;;;;;;;;;5072891;28;20056;-68
2022/06/03 08:25:25;;;;;;;7.63;1.90;;;;;;;;;;5070565;28;20048;-68
2022/06/03 08:27:53;;;;;;;4.20;2.30;;;;;;;;;;5081190;28;20102;-68
2022/06/03 08:30:21;;;;;;;6.45;1.95;;;;;;;;;;5077555;28;20056;-68
2022/06/03 08:32:51;;;;;;;4.90;1.70;;;;;;;;;;5074200;28;20531;-68
2022/06/03 08:35:20;;;;;;;5.43;1.95;;;;;;;;;;5077459;28;20051;-68
2022/06/03 08:37:50;;;;;;;4.75;1.50;;;;;;;;;;5074852;28;20035;-69
2022/06/03 08:40:23;;;;;;;3.38;1.70;;;;;;;;;;5079581;28;20048;-69
2022/06/03 08:42:53;;;;;;;6.05;1.48;;;;;;;;;;5071554;28;20098;-69
2022/06/03 08:45:32;;;;;;;4.10;1.65;;;;;;;;;;5075686;28;20127;-69
2022/06/03 08:48:01;;;;;;;4.50;2.03;;;;;;;;;;5072806;28;20060;-69
2022/06/03 08:50:33;;;;;;;3.35;1.50;;;;;;;;;;5076946;28;20076;-68
2022/06/03 08:53:04;;;;;;;5.82;1.80;;;;;;;;;;5074606;28;20071;-68
2022/06/03 08:55:37;;;;;;;4.30;1.90;;;;;;;;;;5074262;28;20068;-68
2022/06/03 08:58:08;;;;;;;6.07;1.73;;;;;;;;;;5072714;28;20106;-68
2022/06/03 09:00:43;;;;;;;4.22;1.95;;;;;;;;;;5072875;28;20060;-68
2022/06/03 09:03:13;;;;;;;5.60;1.90;;;;;;;;;;5072411;28;20048;-68
2022/06/03 09:05:44;;;;;;;5.50;1.48;;;;;;;;;;5074974;28;20121;-69
2022/06/03 09:08:13;;;;;;;4.45;1.35;;;;;;;;;;5076476;28;20056;-69
2022/06/03 09:10:43;;;;;;;2.72;1.50;;;;;;;;;;5081891;28;20056;-69
2022/06/03 09:13:13;;;;;;;2.05;1.60;;;;;;;;;;5081536;28;20052;-69
2022/06/03 09:15:40;;;;;;;6.00;1.75;;;;;;;;;;5075176;28;20051;-69
2022/06/03 09:18:11;;;;;;;3.80;1.48;;;;;;;;;;5077471;28;20059;-69
2022/06/03 09:20:39;;;;;;;2.75;1.58;;;;;;;;;;5076200;28;20430;-68
2022/06/03 09:23:09;;;;;;;6.47;1.60;;;;;;;;;;5072940;28;20044;-68
2022/06/03 09:25:37;;;;;;;8.85;2.05;;;;;;;;;;5072720;28;20048;-68
2022/06/03 09:28:05;;;;;;;3.40;1.75;;;;;;;;;;5072235;28;20086;-69
2022/06/03 09:30:33;;;;;;;5.25;1.50;;;;;;;;;;5080494;28;20052;-69
2022/06/03 09:33:05;;;;;;;8.63;1.73;;;;;;;;;;5077278;28;20064;-69
2022/06/03 09:35:32;;;;;;;1.95;1.05;;;;;;;;;;5075652;28;20127;-69
2022/06/03 09:38:01;;;;;;;4.05;1.55;;;;;;;;;;5078951;28;20552;-69
2022/06/03 09:40:31;;;;;;;3.40;1.67;;;;;;;;;;5076896;28;20129;-69
2022/06/03 09:43:01;;;;;;;5.45;1.60;;;;;;;;;;5080475;28;20443;-68
2022/06/03 09:45:29;;;;;;;7.00;1.58;;;;;;;;;;5072978;28;20380;-67
2022/06/03 09:47:57;;;;;;;4.15;1.10;;;;;;;;;;5074288;28;20541;-67
2022/06/03 09:50:25;;;;;;;1.80;1.08;;;;;;;;;;5081262;28;20051;-67
2022/06/03 09:52:59;;;;;;;2.90;1.23;;;;;;;;;;5077579;28;20044;-68
2022/06/03 09:55:28;;;;;;;2.70;1.20;;;;;;;;;;5073645;28;20052;-68
2022/06/03 09:57:58;;;;;;;1.90;1.35;;;;;;;;;;5080094;28;20048;-68
2022/06/03 10:00:28;;;;;;;3.75;1.30;;;;;;;;;;5079377;28;20044;-68
2022/06/03 10:02:56;;;;;;;2.50;1.10;;;;;;;;;;5070906;28;20142;-68
2022/06/03 10:05:24;;;;;;;3.78;1.23;;;;;;;;;;5073731;28;20384;-68
2022/06/03 10:07:55;;;;;;;4.25;1.05;;;;;;;;;;5082667;28;20104;-68
2022/06/03 10:13:17;;;;;;;3.58;1.02;;;;;;;;;;5052993;28;20152;-68
2022/06/03 10:15:47;;;;;;;3.50;1.20;;;;;;;;;;5081510;28;20067;-68
2022/06/03 10:18:31;;;;;;;4.00;1.48;;;;;;;;;;5083721;28;20055;-68
2022/06/03 10:21:00;;;;;;;2.60;1.25;;;;;;;;;;5074711;28;20127;-68
2022/06/03 10:23:29;;;;;;;2.80;1.05;;;;;;;;;;5076956;28;20044;-68
2022/06/03 10:25:59;;;;;;;2.85;1.30;;;;;;;;;;5076013;28;20114;-68
2022/06/03 10:28:34;;;;;;;3.13;1.77;;;;;;;;;;5070586;28;20511;-68
2022/06/03 10:31:05;;;;;;;4.68;2.03;;;;;;;;;;5084835;28;20162;-68
2022/06/03 10:33:32;;;;;;;2.88;1.60;;;;;;;;;;5074775;28;20056;-68
2022/06/03 10:36:01;;;;;;;4.45;2.10;;;;;;;;;;5073988;28;20056;-68
2022/06/03 10:38:30;;;;;;;5.30;1.60;;;;;;;;;;5079355;28;20055;-68
2022/06/03 10:40:57;;;;;;;7.03;2.30;;;;;;;;;;5074736;28;20090;-68
2022/06/03 10:43:25;;;;;;;3.53;1.88;;;;;;;;;;5076894;28;20112;-68
2022/06/03 10:46:07;;;;;;;5.28;2.10;;;;;;;;;;5078479;28;20059;-68
2022/06/03 10:48:34;;;;;;;4.95;1.95;;;;;;;;;;5077140;28;20044;-68
2022/06/03 10:51:13;;;;;;;6.13;2.33;;;;;;;;;;5077364;28;20072;-68
2022/06/03 11:01:59;;;;;;;4.45;1.80;;;;;;;;;;5078477;28;20066;-68
2022/06/03 11:04:28;;;;;;;3.75;1.88;;;;;;;;;;5077220;28;20060;-68
2022/06/03 11:06:56;;;;;;;5.93;2.00;;;;;;;;;;5077257;28;20092;-68
2022/06/03 11:09:24;;;;;;;3.60;1.92;;;;;;;;;;5077312;28;20121;-68
2022/06/03 11:11:52;;;;;;;2.95;1.98;;;;;;;;;;5076241;28;20540;-68
2022/06/03 11:14:30;;;;;;;4.72;1.92;;;;;;;;;;5077446;28;20640;-68
2022/06/03 11:17:00;;;;;;;3.63;1.80;;;;;;;;;;5073774;28;20149;-68
2022/06/03 11:19:31;;;;;;;4.25;1.88;;;;;;;;;;5075808;28;20554;-68
2022/06/03 11:22:13;;;;;;;4.10;1.80;;;;;;;;;;5077884;28;20090;-68
2022/06/03 11:24:40;;;;;;;6.18;2.00;;;;;;;;;;5079141;28;20757;-68
2022/06/03 11:27:09;;;;;;;3.72;1.77;;;;;;;;;;5069728;28;20449;-68
2022/06/03 11:29:37;;;;;;;5.57;2.20;;;;;;;;;;5078733;28;20053;-68
2022/06/03 11:32:07;;;;;;;4.38;1.83;;;;;;;;;;5072001;28;20052;-68
2022/06/03 11:34:36;;;;;;;3.90;1.88;;;;;;;;;;5070768;28;20603;-68
2022/06/03 11:37:07;;;;;;;4.50;1.90;;;;;;;;;;5072550;28;20052;-69
2022/06/03 11:39:37;;;;;;;5.80;2.33;;;;;;;;;;5072869;28;20044;-69
2022/06/03 11:42:06;;;;;;;4.75;1.90;;;;;;;;;;5074120;28;20052;-69
2022/06/03 11:44:36;;;;;;;3.70;1.95;;;;;;;;;;5072014;28;20065;-68
2022/06/03 11:47:08;;;;;;;4.95;2.13;;;;;;;;;;5070888;28;20044;-69
2022/06/03 11:49:36;;;;;;;4.22;1.70;;;;;;;;;;5074313;28;20125;-69
2022/06/03 11:52:03;;;;;;;3.75;1.90;;;;;;;;;;5072304;28;20063;-69
2022/06/03 11:54:31;;;;;;;6.15;2.50;;;;;;;;;;5072147;28;20090;-69
2022/06/03 11:57:00;;;;;;;5.85;2.30;;;;;;;;;;5069052;28;20062;-69
2022/06/03 11:59:31;;;;;;;5.97;2.10;;;;;;;;;;5074303;28;20048;-69
2022/06/03 12:02:01;;;;;;;4.25;1.98;;;;;;;;;;5076975;28;20036;-69
2022/06/03 12:04:36;;;;;;;8.95;1.95;;;;;;;;;;5074088;28;20109;-69
2022/06/03 12:07:07;;;;;;;7.00;2.00;;;;;;;;;;5077002;28;20071;-69
2022/06/03 12:09:40;;;;;;;6.50;1.83;;;;;;;;;;5081826;28;20051;-69
2022/06/03 12:14:57;;;;;;;7.20;1.73;;;;;;;;;;5074322;28;20048;-69
2022/06/03 12:17:29;;;;;;;4.40;2.00;;;;;;;;;;5074165;28;20215;-69
2022/06/03 12:19:58;;;;;;;14.60;2.08;;;;;;;;;;5073866;28;20056;-69
2022/06/03 12:22:36;;;;;;;6.47;1.80;;;;;;;;;;5072923;28;20121;-69
2022/06/03 12:25:05;;;;;;;5.80;2.25;;;;;;;;;;5072085;28;20158;-69
2022/06/03 12:27:34;;;;;;;6.32;2.33;;;;;;;;;;5082324;28;20057;-69
2022/06/03 12:30:18;;;;;;;6.38;2.15;;;;;;;;;;5078544;28;20052;-69
2022/06/03 12:32:48;;;;;;;5.18;1.98;;;;;;;;;;5079218;28;20724;-69
2022/06/03 12:35:30;;;;;;;6.68;2.00;;;;;;;;;;5074377;28;20052;-69
2022/06/03 12:38:12;;;;;;;5.47;2.20;;;;;;;;;;5076600;28;20799;-69
2022/06/03 12:40:41;;;;;;;5.32;1.92;;;;;;;;;;5074343;28;20063;-69
2022/06/03 12:43:22;;;;;;;6.38;1.55;;;;;;;;;;5077412;28;20040;-69
2022/06/03 12:45:58;;;;;;;5.25;1.92;;;;;;;;;;5073278;28;20052;-69
2022/06/03 12:48:37;;;;;;;4.68;1.70;;;;;;;;;;5073252;28;20059;-69
2022/06/03 12:51:20;;;;;;;7.22;1.60;;;;;;;;;;5076936;28;20113;-69
2022/06/03 12:53:49;;;;;;;4.75;1.80;;;;;;;;;;5076955;28;20344;-69
2022/06/03 12:56:35;;;;;;;8.15;1.88;;;;;;;;;;5079702;28;20056;-69
2022/06/03 12:59:17;;;;;;;4.95;1.60;;;;;;;;;;5078639;28;20055;-69
2022/06/03 13:01:52;;;;;;;5.38;1.90;;;;;;;;;;5080853;28;20110;-69
2022/06/03 13:04:37;;;;;;;3.63;1.63;;;;;;;;;;5081404;28;20052;-69
2022/06/03 13:07:12;;;;;;;4.55;1.80;;;;;;;;;;5079400;28;20409;-69
2022/06/03 13:09:50;;;;;;;5.75;1.73;;;;;;;;;;5075784;28;20558;-69
2022/06/03 13:12:27;;;;;;;4.07;1.58;;;;;;;;;;5077759;28;20043;-69
2022/06/03 13:14:55;;;;;;;3.25;1.50;;;;;;;;;;5081450;28;20117;-69
2022/06/03 13:17:40;;;;;;;5.00;1.70;;;;;;;;;;5075177;28;20585;-69
2022/06/03 13:20:09;;;;;;;5.03;1.70;;;;;;;;;;5078984;28;20052;-69
2022/06/03 13:22:51;;;;;;;4.38;1.40;;;;;;;;;;5074140;28;20064;-69
2022/06/03 13:25:28;;;;;;;2.93;1.30;;;;;;;;;;5074937;28;20071;-69
2022/06/03 13:28:16;;;;;;;3.83;1.55;;;;;;;;;;5078834;28;20130;-69
2022/06/03 13:30:43;;;;;;;3.25;1.38;;;;;;;;;;5073885;28;20063;-69
2022/06/03 13:33:18;;;;;;;6.03;1.50;;;;;;;;;;5079749;28;20044;-69
2022/06/03 13:36:00;;;;;;;2.13;1.27;;;;;;;;;;5077691;28;20075;-69
2022/06/03 13:38:39;;;;;;;2.60;1.50;;;;;;;;;;5075994;28;20487;-69
2022/06/03 13:44:10;;;;;;;3.88;1.30;;;;;;;;;;5075160;28;20122;-69
2022/06/03 13:46:37;;;;;;;4.53;1.40;;;;;;;;;;5076282;28;20449;-69
2022/06/03 13:49:13;;;;;;;5.40;1.40;;;;;;;;;;5077770;28;20110;-69
2022/06/03 13:51:51;;;;;;;2.20;1.33;;;;;;;;;;5076106;28;20053;-69
2022/06/03 13:54:21;;;;;;;3.22;1.20;;;;;;;;;;5082186;28;20033;-69
2022/06/03 13:56:56;;;;;;;2.45;1.40;;;;;;;;;;5073280;28;20062;-69
2022/06/03 13:59:26;;;;;;;3.65;1.50;;;;;;;;;;5075239;28;20048;-69
2022/06/03 14:01:54;;;;;;;3.63;1.48;;;;;;;;;;5071529;28;20052;-69
2022/06/03 14:04:24;;;;;;;3.75;1.40;;;;;;;;;;5072282;28;20080;-69
2022/06/03 14:06:57;;;;;;;3.25;1.48;;;;;;;;;;5070054;28;20060;-70
2022/06/03 14:09:27;;;;;;;6.80;1.42;;;;;;;;;;5075383;28;20051;-70
2022/06/03 14:11:56;;;;;;;2.22;1.30;;;;;;;;;;5070883;28;20546;-70
2022/06/03 14:14:30;;;;;;;3.13;1.50;;;;;;;;;;5075766;28;20044;-70
2022/06/03 14:17:01;;;;;;;3.38;1.45;;;;;;;;;;5077647;28;20044;-70
2022/06/03 14:19:39;;;;;;;3.05;1.50;;;;;;;;;;5079400;28;20129;-70
2022/06/03 14:22:18;;;;;;;4.88;1.50;;;;;;;;;;5077009;28;20071;-70
2022/06/03 14:24:48;;;;;;;3.08;1.20;;;;;;;;;;5069314;28;20106;-70
2022/06/03 14:27:21;;;;;;;2.17;1.50;;;;;;;;;;5069195;28;20059;-70
2022/06/03 14:29:53;;;;;;;3.80;1.40;;;;;;;;;;5074230;28;20047;-70
2022/06/03 14:32:22;;;;;;;6.15;1.40;;;;;;;;;;5073210;28;20056;-69
2022/06/03 14:34:50;;;;;;;2.88;1.40;;;;;;;;;;5072589;28;20044;-69
2022/06/03 14:37:20;;;;;;;3.25;1.50;;;;;;;;;;5076296;28;20055;-70
2022/06/03 14:39:49;;;;;;;7.55;2.13;;;;;;;;;;5076789;28;20063;-70
2022/06/03 14:42:18;;;;;;;2.47;1.48;;;;;;;;;;5077917;28;20056;-70
2022/06/03 14:44:46;;;;;;;4.55;1.77;;;;;;;;;;5072888;28;20475;-70
2022/06/03 14:47:20;;;;;;;6.78;1.60;;;;;;;;;;5074537;28;20522;-70
2022/06/03 14:49:49;;;;;;;5.10;1.90;;;;;;;;;;5073640;28;20059;-70
2022/06/03 14:52:20;;;;;;;4.00;1.67;;;;;;;;;;5072283;28;20129;-70
2022/06/03 14:54:53;;;;;;;3.60;1.42;;;;;;;;;;5073411;28;20059;-69
2022/06/03 14:57:24;;;;;;;4.45;1.60;;;;;;;;;;5074750;28;20083;-69
2022/06/03 15:00:02;;;;;;;4.13;1.60;;;;;;;;;;5072233;28;20056;-69
2022/06/03 15:02:35;;;;;;;6.72;1.85;;;;;;;;;;5080489;28;20062;-69
2022/06/03 15:05:04;;;;;;;3.83;1.58;;;;;;;;;;5072741;28;20137;-69
2022/06/03 15:07:35;;;;;;;4.90;1.70;;;;;;;;;;5072166;28;20060;-69
2022/06/03 15:10:03;;;;;;;3.53;2.00;;;;;;;;;;5075417;28;20052;-69
2022/06/03 15:12:32;;;;;;;2.25;1.58;;;;;;;;;;5076624;28;20055;-69
2022/06/03 15:14:59;;;;;;;7.05;1.75;;;;;;;;;;5070668;28;20133;-69
2022/06/03 15:17:28;;;;;;;2.75;1.70;;;;;;;;;;5079258;28;20052;-70
2022/06/03 15:19:58;;;;;;;2.45;1.60;;;;;;;;;;5070937;28;20063;-70
2022/06/03 15:22:28;;;;;;;6.68;1.48;;;;;;;;;;5078634;28;20052;-70
2022/06/03 15:24:56;;;;;;;4.03;1.50;;;;;;;;;;5073172;28;20060;-70
2022/06/03 15:27:29;;;;;;;4.32;1.45;;;;;;;;;;5083978;28;20060;-70
2022/06/03 15:29:56;;;;;;;4.78;1.60;;;;;;;;;;5075831;28;20059;-70
2022/06/03 15:32:25;;;;;;;7.45;1.77;;;;;;;;;;5073745;28;20498;-70
2022/06/03 15:34:59;;;;;;;4.38;1.58;;;;;;;;;;5074156;28;20066;-69
2022/06/03 15:37:28;;;;;;;3.72;1.70;;;;;;;;;;5082325;28;20086;-69
2022/06/03 15:39:55;;;;;;;4.63;1.67;;;;;;;;;;5076401;28;20055;-69
2022/06/03 15:42:24;;;;;;;4.85;1.80;;;;;;;;;;5073961;28;20055;-69
2022/06/03 15:44:51;;;;;;;3.25;1.80;;;;;;;;;;5081031;28;20381;-69
2022/06/03 15:47:22;;;;;;;3.05;1.80;;;;;;;;;;5077485;28;20052;-69
2022/06/03 15:50:01;;;;;;;3.95;1.70;;;;;;;;;;5069404;28;20475;-69
2022/06/03 15:52:40;;;;;;;5.80;1.95;;;;;;;;;;5076483;28;20055;-69
2022/06/03 15:55:07;;;;;;;3.50;1.73;;;;;;;;;;5075015;28;20052;-69
2022/06/03 15:57:41;;;;;;;2.95;1.60;;;;;;;;;;5078134;28;20083;-69
2022/06/03 16:00:13;;;;;;;3.20;1.77;;;;;;;;;;5076809;28;20060;-69
2022/06/03 16:02:49;;;;;;;2.95;1.70;;;;;;;;;;5073828;28;20056;-69